createdAt,value
2022-12-05T00:01:29.042Z,3.20
2022-12-05T00:03:59.042Z,3.20
2022-12-05T00:06:27.839Z,3.20
2022-12-05T00:08:54.505Z,3.30
2022-12-05T00:11:24.187Z,3.20
2022-12-05T00:13:52.897Z,3.30
2022-12-05T00:16:21.793Z,3.30
2022-12-05T00:18:49.498Z,3.30
2022-12-05T00:21:25.222Z,3.30
2022-12-05T00:23:53.339Z,3.30
2022-12-05T00:26:20.644Z,3.30
2022-12-05T00:28:47.688Z,3.30
2022-12-05T00:31:21.881Z,3.40
2022-12-05T00:33:49.631Z,3.30
2022-12-05T00:36:19.110Z,3.30
2022-12-05T00:38:45.875Z,3.30
2022-12-05T00:41:15.232Z,3.40
2022-12-05T00:43:42.083Z,3.30
2022-12-05T00:46:12.042Z,3.30
2022-12-05T00:48:39.245Z,3.40
2022-12-05T00:51:11.946Z,3.40
2022-12-05T00:53:39.084Z,3.40
2022-12-05T00:56:11.757Z,3.40
2022-12-05T00:58:38.949Z,3.40
2022-12-05T01:01:17.519Z,3.40
2022-12-05T01:03:45.532Z,3.40
2022-12-05T01:06:13.678Z,3.40
2022-12-05T01:08:40.814Z,3.40
2022-12-05T01:11:09.171Z,3.40
2022-12-05T01:13:36.772Z,3.50
2022-12-05T01:16:04.597Z,3.40
2022-12-05T01:18:31.702Z,3.40
2022-12-05T01:20:58.433Z,3.50
2022-12-05T01:23:25.077Z,3.50
2022-12-05T01:25:53.026Z,3.50
2022-12-05T01:28:19.755Z,3.50
2022-12-05T01:30:48.666Z,3.50
2022-12-05T01:33:16.052Z,3.50
2022-12-05T01:35:43.120Z,3.50
2022-12-05T01:38:11.999Z,3.50
2022-12-05T01:40:38.984Z,3.50
2022-12-05T01:43:14.987Z,3.50
2022-12-05T01:45:44.099Z,3.50
2022-12-05T01:48:33.989Z,3.50
2022-12-05T01:51:01.338Z,3.50
2022-12-05T01:53:29.508Z,3.50
2022-12-05T01:55:57.121Z,3.50
2022-12-05T01:58:27.999Z,3.50
2022-12-05T02:00:54.668Z,3.50
2022-12-05T02:03:22.030Z,3.60
2022-12-05T02:05:51.669Z,3.60
2022-12-05T02:08:18.971Z,3.50
2022-12-05T02:10:54.510Z,3.60
2022-12-05T02:13:33.016Z,3.60
2022-12-05T02:16:38.145Z,3.60
2022-12-05T02:19:17.288Z,3.60
2022-12-05T02:22:11.381Z,3.60
2022-12-05T02:24:46.911Z,3.60
2022-12-05T02:27:22.782Z,3.60
2022-12-05T02:29:49.363Z,3.60
2022-12-05T02:32:47.488Z,3.60
2022-12-05T02:35:18.052Z,3.60
2022-12-05T02:38:23.586Z,3.60
2022-12-05T02:41:12.830Z,3.70
2022-12-05T02:43:57.107Z,3.60
2022-12-05T02:46:27.997Z,3.60
2022-12-05T02:49:01.500Z,3.60
2022-12-05T02:51:33.344Z,3.60
2022-12-05T02:54:04.553Z,3.70
2022-12-05T02:56:34.371Z,3.60
2022-12-05T02:59:01.863Z,3.70
2022-12-05T03:01:31.898Z,3.70
2022-12-05T03:04:01.584Z,3.70
2022-12-05T03:06:32.268Z,3.70
2022-12-05T03:09:12.342Z,3.70
2022-12-05T03:11:47.025Z,3.70
2022-12-05T03:14:25.570Z,3.70
2022-12-05T03:16:56.436Z,3.70
2022-12-05T03:19:41.024Z,3.70
2022-12-05T03:22:22.189Z,3.80
2022-12-05T03:24:49.193Z,3.80
2022-12-05T03:27:42.924Z,3.80
2022-12-05T03:30:13.697Z,3.80
2022-12-05T03:33:07.572Z,3.80
2022-12-05T03:35:48.664Z,3.80
2022-12-05T03:38:33.502Z,3.80
2022-12-05T03:41:25.983Z,3.80
2022-12-05T03:43:52.609Z,3.80
2022-12-05T03:46:37.492Z,3.80
2022-12-05T03:49:17.537Z,3.80
2022-12-05T03:51:50.793Z,3.90
2022-12-05T03:54:26.067Z,3.80
2022-12-05T03:57:09.153Z,3.90
2022-12-05T03:59:48.140Z,3.90
2022-12-05T04:02:23.364Z,3.90
2022-12-05T04:05:11.834Z,3.90
2022-12-05T04:07:40.439Z,3.90
2022-12-05T04:10:14.069Z,3.90
2022-12-05T04:12:43.644Z,3.90
2022-12-05T04:15:24.211Z,3.90
2022-12-05T04:17:59.079Z,3.90
2022-12-05T04:20:47.324Z,3.90
2022-12-05T04:23:14.534Z,3.90
2022-12-05T04:26:21.226Z,4.00
2022-12-05T04:29:09.866Z,4.00
2022-12-05T04:31:47.177Z,4.00
2022-12-05T04:34:15.699Z,3.90
2022-12-05T04:36:56.897Z,4.00
2022-12-05T04:39:33.147Z,4.00
2022-12-05T04:42:07.653Z,4.00
2022-12-05T04:44:36.599Z,4.00
2022-12-05T04:47:05.972Z,4.00
2022-12-05T04:49:34.948Z,4.00
2022-12-05T04:52:07.156Z,4.00
2022-12-05T04:55:05.984Z,4.00
2022-12-05T04:57:59.716Z,4.00
2022-12-05T05:00:29.742Z,4.10
2022-12-05T05:03:05.664Z,4.00
2022-12-05T05:05:34.762Z,4.00
2022-12-05T05:08:01.769Z,4.10
2022-12-05T05:10:38.582Z,4.10
2022-12-05T05:13:05.493Z,4.00
2022-12-05T05:15:32.197Z,4.10
2022-12-05T05:17:58.809Z,4.00
2022-12-05T05:20:26.858Z,4.10
2022-12-05T05:22:55.312Z,4.10
2022-12-05T05:25:22.156Z,4.10
2022-12-05T05:27:53.770Z,4.10
2022-12-05T05:30:21.448Z,4.10
2022-12-05T05:32:48.525Z,4.10
2022-12-05T05:35:15.941Z,4.10
2022-12-05T05:37:42.964Z,4.10
2022-12-05T05:40:12.567Z,4.10
2022-12-05T05:42:49.608Z,4.10
2022-12-05T05:45:17.223Z,4.10
2022-12-05T05:47:44.221Z,4.10
2022-12-05T05:50:13.983Z,4.20
2022-12-05T05:52:44.674Z,4.20
2022-12-05T05:55:11.417Z,4.20
2022-12-05T05:57:38.028Z,4.20
2022-12-05T06:00:06.952Z,4.20
2022-12-05T06:02:35.264Z,4.20
2022-12-05T06:05:02.391Z,4.20
2022-12-05T06:07:29.339Z,4.20
2022-12-05T06:09:56.535Z,4.20
2022-12-05T06:12:23.425Z,4.20
2022-12-05T06:14:50.789Z,4.30
2022-12-05T06:17:17.900Z,4.20
2022-12-05T06:19:44.576Z,4.30
2022-12-05T06:22:11.279Z,4.30
2022-12-05T06:24:38.498Z,4.30
2022-12-05T06:27:05.430Z,4.30
2022-12-05T06:29:34.034Z,4.30
2022-12-05T06:32:01.506Z,4.30
2022-12-05T06:34:28.406Z,4.30
2022-12-05T06:36:54.996Z,4.30
2022-12-05T06:39:21.975Z,4.40
2022-12-05T06:41:48.582Z,4.40
2022-12-05T06:44:15.152Z,4.40
2022-12-05T06:46:41.754Z,4.40
2022-12-05T06:49:10.353Z,4.40
2022-12-05T06:51:37.278Z,4.40
2022-12-05T06:54:03.970Z,4.40
2022-12-05T06:56:30.686Z,4.40
2022-12-05T06:58:57.342Z,4.40
2022-12-05T07:01:43.805Z,4.40
2022-12-05T07:04:24.508Z,4.40
2022-12-05T07:06:53.047Z,4.40
2022-12-05T07:09:22.929Z,4.40
2022-12-05T07:11:51.275Z,4.50
2022-12-05T07:14:45.923Z,4.50
2022-12-05T07:17:05.440Z,4.50
2022-12-05T07:19:32.341Z,4.50
2022-12-05T07:21:59.105Z,4.50
2022-12-05T07:24:25.868Z,4.50
2022-12-05T07:26:52.687Z,4.60
2022-12-05T07:29:19.648Z,4.60
2022-12-05T07:31:46.286Z,4.60
2022-12-05T07:34:13.396Z,4.60
2022-12-05T07:36:40.065Z,4.60
2022-12-05T07:39:06.775Z,4.60
2022-12-05T07:41:35.051Z,4.60
2022-12-05T07:44:01.718Z,4.60
2022-12-05T07:46:31.777Z,4.60
2022-12-05T07:48:58.464Z,4.60
2022-12-05T07:51:25.177Z,4.60
2022-12-05T07:53:52.356Z,4.60
2022-12-05T07:56:19.295Z,4.60
2022-12-05T07:58:49.065Z,4.70
2022-12-05T08:01:18.708Z,4.70
2022-12-05T08:03:46.191Z,4.70
2022-12-05T08:06:15.893Z,4.70
2022-12-05T08:08:43.304Z,4.70
2022-12-05T08:11:13.476Z,4.80
2022-12-05T08:13:40.979Z,4.70
2022-12-05T08:16:10.996Z,4.70
2022-12-05T08:18:38.450Z,4.80
2022-12-05T08:21:07.544Z,4.80
2022-12-05T08:23:34.879Z,4.80
2022-12-05T08:26:24.534Z,4.80
2022-12-05T08:28:53.482Z,4.80
2022-12-05T08:31:24.245Z,4.80
2022-12-05T08:33:57.140Z,4.80
2022-12-05T08:36:26.906Z,4.90
2022-12-05T08:39:05.827Z,4.90
2022-12-05T08:41:33.349Z,4.90
2022-12-05T08:44:05.568Z,4.90
2022-12-05T08:46:34.346Z,4.90
2022-12-05T08:49:01.334Z,4.90
2022-12-05T08:51:28.143Z,4.90
2022-12-05T08:53:56.553Z,5.00
2022-12-05T08:56:27.261Z,5.00
2022-12-05T08:59:01.165Z,5.00
2022-12-05T09:01:32.720Z,5.00
2022-12-05T09:04:00.615Z,5.00
2022-12-05T09:06:29.527Z,5.00
2022-12-05T09:09:02.417Z,5.00
2022-12-05T09:11:31.845Z,5.00
2022-12-05T09:13:59.933Z,5.00
2022-12-05T09:16:36.937Z,5.10
2022-12-05T09:19:06.276Z,5.00
2022-12-05T09:21:33.243Z,5.00
2022-12-05T09:24:00.794Z,5.10
2022-12-05T09:26:29.906Z,5.10
2022-12-05T09:28:57.001Z,5.10
2022-12-05T09:31:26.968Z,5.10
2022-12-05T09:33:54.333Z,5.10
2022-12-05T09:36:24.173Z,5.10
2022-12-05T09:38:51.815Z,5.10
2022-12-05T09:42:03.378Z,5.10
2022-12-05T09:44:41.804Z,5.20
2022-12-05T09:47:33.379Z,5.20
2022-12-05T09:50:14.184Z,5.20
2022-12-05T09:53:01.135Z,5.20
2022-12-05T09:55:43.580Z,5.20
2022-12-05T09:58:40.316Z,5.20
2022-12-05T10:01:27.309Z,5.20
2022-12-05T10:04:13.239Z,5.30
2022-12-05T10:06:55.410Z,5.20
2022-12-05T10:09:47.325Z,5.30
2022-12-05T10:12:48.099Z,5.30
2022-12-05T10:15:38.023Z,5.30
2022-12-05T10:18:13.914Z,5.30
2022-12-05T10:21:10.075Z,5.30
2022-12-05T10:24:02.998Z,5.30
2022-12-05T10:26:45.151Z,5.30
2022-12-05T10:29:26.997Z,5.40
2022-12-05T10:32:00.388Z,5.40
2022-12-05T10:34:34.042Z,5.40
2022-12-05T10:37:11.806Z,5.30
2022-12-05T10:39:39.113Z,5.30
2022-12-05T10:42:15.385Z,5.40
2022-12-05T10:44:42.814Z,5.40
2022-12-05T10:47:09.857Z,5.40
2022-12-05T10:49:37.977Z,5.40
2022-12-05T10:52:05.583Z,5.40
2022-12-05T10:54:40.327Z,5.40
2022-12-05T10:57:27.927Z,5.40
2022-12-05T10:59:56.420Z,5.50
2022-12-05T11:02:29.600Z,5.50
2022-12-05T11:04:58.420Z,5.40
2022-12-05T11:07:45.604Z,5.50
2022-12-05T11:10:34.855Z,5.50
2022-12-05T11:13:02.257Z,5.50
2022-12-05T11:15:30.886Z,5.50
2022-12-05T11:18:17.088Z,5.50
2022-12-05T11:20:43.832Z,5.50
2022-12-05T11:23:23.523Z,5.50
2022-12-05T11:25:51.194Z,5.60
2022-12-05T11:28:17.725Z,5.50
2022-12-05T11:30:58.685Z,5.60
2022-12-05T11:33:27.626Z,5.50
2022-12-05T11:36:13.012Z,5.60
2022-12-05T11:38:40.506Z,5.60
2022-12-05T11:41:35.172Z,5.60
2022-12-05T11:44:18.423Z,5.60
2022-12-05T11:47:07.486Z,5.60
2022-12-05T11:49:57.459Z,5.60
2022-12-05T11:52:43.235Z,5.60
2022-12-05T11:55:31.914Z,5.60
2022-12-05T11:58:15.222Z,5.70
2022-12-05T12:00:47.824Z,5.70
2022-12-05T12:03:20.578Z,5.70
2022-12-05T12:06:23.647Z,5.70
2022-12-05T12:09:26.480Z,5.70
2022-12-05T12:12:03.769Z,5.70
2022-12-05T12:14:51.998Z,5.70
2022-12-05T12:17:22.709Z,5.70
2022-12-05T12:20:12.020Z,5.80
2022-12-05T12:22:54.221Z,5.80
2022-12-05T12:26:04.874Z,5.90
2022-12-05T12:28:39.510Z,5.90
2022-12-05T12:31:29.039Z,5.90
2022-12-05T12:34:13.285Z,6.00
2022-12-05T12:36:51.342Z,6.00
2022-12-05T12:39:42.330Z,6.00
2022-12-05T12:42:20.502Z,6.00
2022-12-05T12:45:17.789Z,6.00
2022-12-05T12:48:25.458Z,6.00
2022-12-05T12:50:54.608Z,6.00
2022-12-05T12:53:35.745Z,6.00
2022-12-05T12:56:26.769Z,5.90
2022-12-05T12:59:18.757Z,6.00
2022-12-05T13:02:04.588Z,5.90
2022-12-05T13:04:53.000Z,5.90
2022-12-05T13:07:37.888Z,5.90
2022-12-05T13:10:34.791Z,6.00
2022-12-05T13:13:05.298Z,6.00
2022-12-05T13:15:41.152Z,6.00
2022-12-05T13:18:16.182Z,6.00
2022-12-05T13:20:44.361Z,6.00
2022-12-05T13:23:16.285Z,6.00
2022-12-05T13:25:46.066Z,6.00
2022-12-05T13:28:32.864Z,5.90
2022-12-05T13:31:02.503Z,5.90
2022-12-05T13:33:44.026Z,5.90
2022-12-05T13:36:40.974Z,5.90
2022-12-05T13:39:37.934Z,5.90
2022-12-05T13:42:17.558Z,5.90
2022-12-05T13:45:07.486Z,5.90
2022-12-05T13:48:16.491Z,5.90
2022-12-05T13:50:58.187Z,5.90
2022-12-05T13:53:42.310Z,5.90
2022-12-05T13:56:15.130Z,5.90
2022-12-05T13:58:53.823Z,5.90
2022-12-05T14:01:26.662Z,5.90
2022-12-05T14:04:02.250Z,5.80
2022-12-05T14:06:40.706Z,5.80
2022-12-05T14:09:20.203Z,5.80
2022-12-05T14:12:12.367Z,5.80
2022-12-05T14:14:57.661Z,5.80
2022-12-05T14:17:44.327Z,5.80
2022-12-05T14:20:26.212Z,5.80
2022-12-05T14:23:20.490Z,5.80
2022-12-05T14:26:08.262Z,5.80
2022-12-05T14:28:51.352Z,5.80
2022-12-05T14:31:41.041Z,5.80
2022-12-05T14:34:38.519Z,5.80
2022-12-05T14:37:17.344Z,5.90
2022-12-05T14:39:51.642Z,5.80
2022-12-05T14:42:40.254Z,5.80
2022-12-05T14:45:28.186Z,5.80
2022-12-05T14:48:00.723Z,5.80
2022-12-05T14:50:49.102Z,5.80
2022-12-05T14:53:20.504Z,5.80
2022-12-05T14:55:58.843Z,5.80
2022-12-05T14:58:25.551Z,5.80
2022-12-05T15:01:01.952Z,5.70
2022-12-05T15:03:42.350Z,5.80
2022-12-05T15:06:15.876Z,5.80
2022-12-05T15:08:47.740Z,5.80
2022-12-05T15:11:38.153Z,5.80
2022-12-05T15:14:17.103Z,5.80
2022-12-05T15:16:46.036Z,5.80
2022-12-05T15:19:33.345Z,5.80
2022-12-05T15:22:02.546Z,5.70
2022-12-05T15:24:38.615Z,5.80
2022-12-05T15:27:06.878Z,5.70
2022-12-05T15:29:34.926Z,5.70
2022-12-05T15:32:02.933Z,5.70
2022-12-05T15:34:37.414Z,5.70
2022-12-05T15:37:22.387Z,5.80
2022-12-05T15:40:26.019Z,5.80
2022-12-05T15:42:55.522Z,5.70
2022-12-05T15:45:30.182Z,5.70
2022-12-05T15:48:04.643Z,5.70
2022-12-05T15:50:33.847Z,5.70
2022-12-05T15:53:10.659Z,5.70
2022-12-05T15:56:00.342Z,5.70
2022-12-05T15:58:31.518Z,5.70
2022-12-05T16:01:12.655Z,5.80
2022-12-05T16:03:54.336Z,5.80
2022-12-05T16:06:44.497Z,5.90
2022-12-05T16:09:17.791Z,5.80
2022-12-05T16:11:56.471Z,5.80
2022-12-05T16:14:51.275Z,5.80
2022-12-05T16:17:15.681Z,5.70
2022-12-05T16:19:43.697Z,5.70
2022-12-05T16:22:13.294Z,5.70
2022-12-05T16:24:48.427Z,5.70
2022-12-05T16:27:16.652Z,5.70
2022-12-05T16:29:45.069Z,5.70
2022-12-05T16:32:23.807Z,5.80
2022-12-05T16:34:50.660Z,5.80
2022-12-05T16:37:23.050Z,5.80
2022-12-05T16:39:49.820Z,5.70
2022-12-05T16:42:27.595Z,5.70
2022-12-05T16:45:02.252Z,5.70
2022-12-05T16:47:41.141Z,5.70
2022-12-05T16:50:32.314Z,5.70
2022-12-05T16:53:23.363Z,5.70
2022-12-05T16:55:50.498Z,5.70
2022-12-05T16:58:26.377Z,5.70
2022-12-05T17:01:00.708Z,5.70
2022-12-05T17:03:36.264Z,5.70
2022-12-05T17:06:03.789Z,5.70
2022-12-05T17:08:30.594Z,5.70
2022-12-05T17:10:58.027Z,5.70
2022-12-05T17:13:25.126Z,5.70
2022-12-05T17:15:51.848Z,5.70
2022-12-05T17:18:20.905Z,5.70
2022-12-05T17:20:53.144Z,5.70
2022-12-05T17:23:19.785Z,5.70
2022-12-05T17:25:53.530Z,5.70
2022-12-05T17:28:20.701Z,5.70
2022-12-05T17:30:47.522Z,5.70
2022-12-05T17:33:16.205Z,5.70
2022-12-05T17:35:43.148Z,5.70
2022-12-05T17:38:13.357Z,5.70
2022-12-05T17:40:41.227Z,5.70
2022-12-05T17:43:12.594Z,5.70
2022-12-05T17:45:39.377Z,5.70
2022-12-05T17:48:06.415Z,5.70
2022-12-05T17:50:33.117Z,5.70
2022-12-05T17:53:04.335Z,5.80
2022-12-05T17:55:34.305Z,5.80
2022-12-05T17:58:00.932Z,5.70
2022-12-05T18:00:27.520Z,5.70
2022-12-05T18:02:54.255Z,5.70
2022-12-05T18:05:21.168Z,5.80
2022-12-05T18:07:48.122Z,5.70
2022-12-05T18:10:21.643Z,5.80
2022-12-05T18:12:49.282Z,5.80
2022-12-05T18:15:16.541Z,5.70
2022-12-05T18:17:43.700Z,5.70
2022-12-05T18:20:14.625Z,5.70
2022-12-05T18:22:41.882Z,5.80
2022-12-05T18:25:10.024Z,5.80
2022-12-05T18:27:38.137Z,5.80
2022-12-05T18:30:07.013Z,5.70
2022-12-05T18:32:34.193Z,5.80
2022-12-05T18:35:02.058Z,5.80
2022-12-05T18:37:29.200Z,5.70
2022-12-05T18:39:56.734Z,5.70
2022-12-05T18:42:23.529Z,5.80
2022-12-05T18:44:50.330Z,5.70
2022-12-05T18:47:16.981Z,5.80
2022-12-05T18:49:43.788Z,5.80
2022-12-05T18:52:10.595Z,5.80
2022-12-05T18:54:50.711Z,5.70
2022-12-05T18:57:25.596Z,5.80
2022-12-05T18:59:52.395Z,5.70
2022-12-05T19:02:19.164Z,5.70
2022-12-05T19:04:46.258Z,5.70
2022-12-05T19:07:13.275Z,5.80
2022-12-05T19:09:39.860Z,5.70
2022-12-05T19:12:07.094Z,5.80
2022-12-05T19:14:35.222Z,5.80
2022-12-05T19:17:02.100Z,5.80
2022-12-05T19:19:30.245Z,5.80
2022-12-05T19:21:58.772Z,5.80
2022-12-05T19:24:25.693Z,5.80
2022-12-05T19:26:52.487Z,5.80
2022-12-05T19:29:19.374Z,5.80
2022-12-05T19:31:46.076Z,5.80
2022-12-05T19:34:13.073Z,5.80
2022-12-05T19:36:43.412Z,5.70
2022-12-05T19:39:19.355Z,5.70
2022-12-05T19:41:46.646Z,5.70
2022-12-05T19:44:13.931Z,5.70
2022-12-05T19:46:40.978Z,5.70
2022-12-05T19:49:10.759Z,5.70
2022-12-05T19:51:38.283Z,5.70
2022-12-05T19:54:07.440Z,5.80
2022-12-05T19:56:35.296Z,5.70
2022-12-05T19:59:02.196Z,5.70
2022-12-05T20:01:40.289Z,5.70
2022-12-05T20:04:13.328Z,5.70
2022-12-05T20:06:50.112Z,5.80
2022-12-05T20:09:19.061Z,5.70
2022-12-05T20:11:54.671Z,5.80
2022-12-05T20:14:23.621Z,5.80
2022-12-05T20:16:50.525Z,5.80
2022-12-05T20:19:19.528Z,5.80
2022-12-05T20:21:46.195Z,5.80
2022-12-05T20:24:13.078Z,5.80
2022-12-05T20:26:42.259Z,5.80
2022-12-05T20:29:09.444Z,5.80
2022-12-05T20:31:38.906Z,5.70
2022-12-05T20:34:06.496Z,5.80
2022-12-05T20:36:34.753Z,5.80
2022-12-05T20:39:06.779Z,5.80
2022-12-05T20:41:33.735Z,5.80
2022-12-05T20:44:03.533Z,5.80
2022-12-05T20:46:31.715Z,5.80
2022-12-05T20:48:59.157Z,5.80
2022-12-05T20:51:28.517Z,5.80
2022-12-05T20:53:56.799Z,5.80
2022-12-05T20:56:25.813Z,5.80
2022-12-05T20:58:55.890Z,5.70
2022-12-05T21:01:23.684Z,5.70
2022-12-05T21:03:52.235Z,5.80
2022-12-05T21:06:25.154Z,5.80
2022-12-05T21:08:52.721Z,5.80
2022-12-05T21:11:19.788Z,5.70
2022-12-05T21:13:46.677Z,5.70
2022-12-05T21:16:16.733Z,5.70
2022-12-05T21:18:44.118Z,5.70
2022-12-05T21:21:20.209Z,5.70
2022-12-05T21:23:54.454Z,5.70
2022-12-05T21:26:22.179Z,5.80
2022-12-05T21:28:48.954Z,5.70
2022-12-05T21:31:22.010Z,5.70
2022-12-05T21:33:54.570Z,5.80
2022-12-05T21:36:22.379Z,5.70
2022-12-05T21:38:55.452Z,5.70
2022-12-05T21:41:23.638Z,5.70
2022-12-05T21:43:54.383Z,5.70
2022-12-05T21:46:23.071Z,5.70
2022-12-05T21:48:49.870Z,5.70
2022-12-05T21:51:16.642Z,5.70
2022-12-05T21:53:43.517Z,5.80
2022-12-05T21:56:15.406Z,5.70
2022-12-05T21:58:43.652Z,5.70
2022-12-05T22:01:14.980Z,5.70
2022-12-05T22:03:41.735Z,5.80
2022-12-05T22:06:11.216Z,5.80
2022-12-05T22:08:38.791Z,5.70
2022-12-05T22:11:05.473Z,5.70
2022-12-05T22:13:32.363Z,5.70
2022-12-05T22:16:00.048Z,5.70
2022-12-05T22:18:26.736Z,5.70
2022-12-05T22:21:08.082Z,5.80
2022-12-05T22:23:35.546Z,5.80
2022-12-05T22:26:03.603Z,5.80
2022-12-05T22:28:30.607Z,5.70
2022-12-05T22:30:58.682Z,5.70
2022-12-05T22:33:26.294Z,5.70
2022-12-05T22:36:00.917Z,5.70
2022-12-05T22:38:30.180Z,5.80
2022-12-05T22:40:58.903Z,5.70
2022-12-05T22:43:27.086Z,5.70
2022-12-05T22:45:53.939Z,5.80
2022-12-05T22:48:21.537Z,5.80
2022-12-05T22:50:48.976Z,5.80
2022-12-05T22:53:18.125Z,5.80
